Time;durP1;ratioP1;P1;durP2;ratioP2;P2;SDS_P1;SDS_P2;PMS_P1;PMS_P2;Temp;Humidity;BMP_temperature;BMP_pressure;BME280_temperature;BME280_humidity;BME280_pressure;Samples;Min_cycle;Max_cycle;Signal;HPM_P1;HPM_P2
2024/02/12 00:00:57;;;;;;;1.93;1.13;;;21.80;61.70;;;;;;5054981;28;20508;-88
2024/02/12 00:03:24;;;;;;;3.27;1.23;;;21.80;61.70;;;;;;5055034;28;20789;-89
2024/02/12 00:05:51;;;;;;;2.33;1.37;;;21.80;61.70;;;;;;5055135;28;20533;-88
2024/02/12 00:08:19;;;;;;;1.70;1.00;;;21.80;61.60;;;;;;5054740;28;20445;-89
2024/02/12 00:10:49;;;;;;;2.33;1.07;;;21.80;61.70;;;;;;5054867;28;20785;-88
2024/02/12 00:13:17;;;;;;;1.60;1.10;;;21.80;61.70;;;;;;5055137;28;20854;-88
2024/02/12 00:15:45;;;;;;;6.90;1.10;;;21.80;61.70;;;;;;5054811;28;20495;-89
2024/02/12 00:18:12;;;;;;;1.90;1.10;;;21.80;61.60;;;;;;5054478;28;20495;-89
2024/02/12 00:20:39;;;;;;;1.63;1.00;;;21.90;61.80;;;;;;5054768;28;21022;-87
2024/02/12 00:23:06;;;;;;;2.43;1.30;;;21.80;61.60;;;;;;5055369;28;20463;-89
2024/02/12 00:25:34;;;;;;;1.63;0.90;;;21.70;61.50;;;;;;5054904;28;20445;-88
2024/02/12 00:28:01;;;;;;;2.40;1.00;;;21.90;61.70;;;;;;5054806;28;20445;-88
2024/02/12 00:30:28;;;;;;;3.20;1.33;;;21.80;61.70;;;;;;5054212;28;20450;-89
2024/02/12 00:32:55;;;;;;;2.67;1.30;;;21.70;61.50;;;;;;5054375;28;20465;-88
2024/02/12 00:35:25;;;;;;;1.80;1.13;;;21.80;61.70;;;;;;5054966;28;20441;-88
2024/02/12 00:37:52;;;;;;;1.87;1.33;;;21.80;61.90;;;;;;5054827;28;20429;-88
2024/02/12 00:40:19;;;;;;;2.00;1.20;;;21.70;61.50;;;;;;5054219;28;20477;-88
2024/02/12 00:42:48;;;;;;;1.70;1.00;;;21.70;61.40;;;;;;5032875;28;20444;-88
2024/02/12 00:45:16;;;;;;;1.90;1.30;;;21.70;61.50;;;;;;5054766;28;20468;-88
2024/02/12 00:47:43;;;;;;;2.07;1.10;;;21.70;61.50;;;;;;5054436;28;20443;-88
2024/02/12 00:50:10;;;;;;;1.70;1.10;;;21.70;61.50;;;;;;5054440;28;20487;-88
2024/02/12 00:52:38;;;;;;;1.90;0.93;;;21.70;61.50;;;;;;5054634;28;20429;-88
2024/02/12 00:55:06;;;;;;;2.47;1.10;;;21.80;61.70;;;;;;5056079;28;20434;-88
2024/02/12 00:57:34;;;;;;;1.80;1.10;;;21.70;61.50;;;;;;5055361;28;20445;-88
2024/02/12 01:00:06;;;;;;;2.03;1.00;;;21.70;61.40;;;;;;5057576;28;21003;-87
2024/02/12 01:02:35;;;;;;;2.07;1.23;;;21.70;61.50;;;;;;5054322;28;20469;-87
2024/02/12 01:05:02;;;;;;;1.70;1.00;;;21.70;61.40;;;;;;5054305;28;20440;-89
2024/02/12 01:07:31;;;;;;;1.87;1.13;;;21.70;61.40;;;;;;5054116;28;20445;-87
2024/02/12 01:10:00;;;;;;;2.10;1.37;;;21.70;61.40;;;;;;5036180;28;20524;-87
2024/02/12 01:12:27;;;;;;;1.60;1.10;;;21.70;61.40;;;;;;5053945;28;20437;-87
2024/02/12 01:14:54;;;;;;;3.10;1.37;;;21.70;61.40;;;;;;5053957;28;20483;-87
2024/02/12 01:17:23;;;;;;;1.90;1.10;;;21.70;61.50;;;;;;5053925;28;20499;-87
2024/02/12 01:19:53;;;;;;;2.53;1.30;;;21.70;61.40;;;;;;5036116;28;20472;-87
2024/02/12 01:22:20;;;;;;;2.90;1.23;;;21.70;61.40;;;;;;5053813;28;20453;-88
2024/02/12 01:24:47;;;;;;;1.90;1.20;;;21.70;61.40;;;;;;5036112;28;20453;-87
2024/02/12 01:27:14;;;;;;;1.60;1.07;;;21.70;61.40;;;;;;5053787;28;20499;-86
2024/02/12 01:29:42;;;;;;;1.87;1.10;;;21.70;61.40;;;;;;5053914;28;20441;-86
2024/02/12 01:32:09;;;;;;;1.67;1.00;;;21.70;61.40;;;;;;5053703;28;20472;-87
2024/02/12 01:34:38;;;;;;;2.50;1.60;;;21.70;61.40;;;;;;5053842;28;20452;-87
2024/02/12 01:37:04;;;;;;;2.00;0.90;;;21.70;61.50;;;;;;5053930;28;20456;-88
2024/02/12 01:39:31;;;;;;;1.80;1.10;;;21.70;61.60;;;;;;5053210;28;20441;-88
2024/02/12 01:41:57;;;;;;;1.50;0.90;;;21.70;61.50;;;;;;5053611;28;20947;-87
2024/02/12 01:44:25;;;;;;;2.00;1.27;;;21.70;61.50;;;;;;5053662;28;20433;-87
2024/02/12 01:46:52;;;;;;;2.67;1.20;;;21.70;61.40;;;;;;5053493;28;20241;-88
2024/02/12 01:49:20;;;;;;;1.93;1.20;;;21.80;61.40;;;;;;5053808;28;20475;-87
2024/02/12 01:51:50;;;;;;;1.70;1.10;;;21.80;61.30;;;;;;5053692;28;20436;-87
2024/02/12 01:54:19;;;;;;;1.60;1.00;;;21.90;61.40;;;;;;5053634;28;20425;-87
2024/02/12 01:56:47;;;;;;;1.60;1.00;;;21.80;61.30;;;;;;5053975;28;20905;-88
2024/02/12 01:59:17;;;;;;;3.40;1.40;;;21.80;61.20;;;;;;5054025;28;20448;-87
2024/02/12 02:01:45;;;;;;;2.63;1.60;;;21.80;61.10;;;;;;5053701;28;21072;-87
2024/02/12 02:04:12;;;;;;;1.70;1.00;;;21.80;61.10;;;;;;5053401;28;20452;-88
2024/02/12 02:06:39;;;;;;;1.63;1.00;;;21.90;61.20;;;;;;5053562;28;20448;-87
2024/02/12 02:09:07;;;;;;;1.93;1.00;;;21.90;61.20;;;;;;5053463;28;20441;-87
2024/02/12 02:11:34;;;;;;;1.60;1.10;;;21.90;61.20;;;;;;5053768;28;20441;-86
2024/02/12 02:14:02;;;;;;;1.80;1.10;;;21.90;61.10;;;;;;5053649;28;20477;-88
2024/02/12 02:16:29;;;;;;;1.70;1.40;;;21.90;61.00;;;;;;5053316;28;20980;-87
2024/02/12 02:18:56;;;;;;;1.63;1.07;;;21.90;61.00;;;;;;5053849;28;20851;-87
2024/02/12 02:21:23;;;;;;;2.00;1.30;;;21.90;60.90;;;;;;5055487;28;20481;-87
2024/02/12 02:23:51;;;;;;;1.77;1.10;;;22.00;61.00;;;;;;5057183;28;20445;-88
2024/02/12 02:26:19;;;;;;;2.23;1.40;;;22.00;60.90;;;;;;5057530;28;20808;-87
2024/02/12 02:28:46;;;;;;;2.97;1.10;;;22.00;60.90;;;;;;5057084;28;20437;-88
2024/02/12 02:31:13;;;;;;;2.00;1.40;;;22.00;60.90;;;;;;5057342;28;20452;-86
2024/02/12 02:33:39;;;;;;;2.27;1.10;;;22.10;60.90;;;;;;5057050;28;20443;-87
2024/02/12 02:36:07;;;;;;;2.27;1.17;;;22.00;60.80;;;;;;5057252;28;20439;-89
2024/02/12 02:38:35;;;;;;;1.80;1.20;;;22.00;60.80;;;;;;5057168;28;20437;-87
2024/02/12 02:41:03;;;;;;;2.00;1.20;;;22.10;60.90;;;;;;5056899;28;20480;-87
2024/02/12 02:43:31;;;;;;;1.80;1.10;;;22.00;60.80;;;;;;5056831;28;20441;-87
2024/02/12 02:45:59;;;;;;;1.90;1.40;;;22.10;61.70;;;;;;5057211;28;20434;-87
2024/02/12 02:48:28;;;;;;;1.73;1.10;;;22.00;60.70;;;;;;5056967;28;20446;-87
2024/02/12 02:50:55;;;;;;;1.77;1.10;;;22.00;60.70;;;;;;5056861;28;20524;-88
2024/02/12 02:53:22;;;;;;;1.70;1.20;;;22.00;60.70;;;;;;5038888;28;20437;-88
2024/02/12 02:55:50;;;;;;;1.80;1.17;;;22.10;60.70;;;;;;5056742;28;20437;-87
2024/02/12 02:58:16;;;;;;;2.17;1.30;;;22.10;60.70;;;;;;5056598;28;20490;-88
2024/02/12 03:00:45;;;;;;;1.70;1.20;;;22.10;60.70;;;;;;5057054;28;20495;-88
2024/02/12 03:03:13;;;;;;;1.93;1.23;;;22.10;60.60;;;;;;5056631;28;20458;-89
2024/02/12 03:05:39;;;;;;;1.83;1.40;;;22.10;60.60;;;;;;5067408;28;20429;-90
2024/02/12 03:08:08;;;;;;;2.00;1.20;;;22.10;60.60;;;;;;5080707;28;20492;-90
2024/02/12 03:10:35;;;;;;;1.70;1.20;;;22.10;60.60;;;;;;5076811;28;20488;-87
2024/02/12 03:13:04;;;;;;;1.87;0.90;;;22.10;60.60;;;;;;5056272;28;20437;-88
2024/02/12 03:15:31;;;;;;;2.00;1.23;;;22.10;60.60;;;;;;5055936;28;20542;-88
2024/02/12 03:17:59;;;;;;;2.00;1.37;;;22.10;60.60;;;;;;5056100;28;20940;-88
2024/02/12 03:20:26;;;;;;;1.90;1.20;;;22.10;60.50;;;;;;5056587;28;20481;-88
2024/02/12 03:22:53;;;;;;;2.10;1.10;;;22.10;60.50;;;;;;5056545;28;20446;-88
2024/02/12 03:25:20;;;;;;;1.70;1.27;;;22.10;60.50;;;;;;5055849;28;20795;-88
2024/02/12 03:27:47;;;;;;;1.70;1.10;;;22.10;60.50;;;;;;5055764;28;20453;-88
2024/02/12 03:30:15;;;;;;;1.70;1.30;;;22.10;60.40;;;;;;5055960;28;20430;-88
2024/02/12 03:32:42;;;;;;;1.77;1.13;;;22.10;60.40;;;;;;5055693;28;20471;-88
2024/02/12 03:35:10;;;;;;;1.90;1.20;;;22.10;60.40;;;;;;5056395;28;20436;-87
2024/02/12 03:37:37;;;;;;;2.90;1.33;;;22.10;60.30;;;;;;5056065;28;20841;-87
2024/02/12 03:40:10;;;;;;;1.77;1.17;;;22.10;60.40;;;;;;5055981;28;20769;-87
2024/02/12 03:42:37;;;;;;;2.47;1.30;;;22.10;60.40;;;;;;5055985;28;20513;-87
2024/02/12 03:45:05;;;;;;;1.90;1.13;;;22.10;60.40;;;;;;5055754;28;20447;-87
2024/02/12 03:47:38;;;;;;;1.60;1.30;;;22.10;60.40;;;;;;5055532;28;20822;-87
2024/02/12 04:01:07;;;;;;;2.00;1.50;;;22.10;60.30;;;;;;5055453;28;20946;-88
2024/02/12 04:03:34;;;;;;;2.67;1.37;;;22.10;60.30;;;;;;5055536;28;20442;-88
2024/02/12 04:06:04;;;;;;;3.47;1.43;;;22.10;60.20;;;;;;5055393;28;20449;-88
2024/02/12 04:08:32;;;;;;;1.70;1.43;;;22.20;60.40;;;;;;5055183;28;20445;-88
2024/02/12 04:10:59;;;;;;;1.80;1.40;;;22.20;60.40;;;;;;5055280;28;20445;-86
2024/02/12 04:13:26;;;;;;;2.07;1.57;;;22.20;60.30;;;;;;5055194;28;20933;-87
2024/02/12 04:15:54;;;;;;;2.40;1.43;;;22.30;60.40;;;;;;5037345;28;20986;-87
2024/02/12 04:18:21;;;;;;;2.87;1.60;;;22.20;60.30;;;;;;5055113;28;20445;-88
2024/02/12 04:20:49;;;;;;;1.70;1.30;;;22.20;60.30;;;;;;5055074;28;20485;-87
2024/02/12 04:23:16;;;;;;;2.00;1.47;;;22.20;60.30;;;;;;5054977;28;20444;-88
2024/02/12 04:25:45;;;;;;;1.80;1.60;;;22.20;60.30;;;;;;5054909;28;20446;-87
2024/02/12 04:28:13;;;;;;;1.93;1.37;;;22.20;60.30;;;;;;5055342;28;20445;-88
2024/02/12 04:30:40;;;;;;;1.73;1.40;;;22.20;60.30;;;;;;5054916;28;20502;-88
2024/02/12 04:33:07;;;;;;;1.80;1.40;;;22.20;60.30;;;;;;5054895;28;20458;-87
2024/02/12 04:35:35;;;;;;;1.90;1.60;;;22.20;60.30;;;;;;5054973;28;20544;-87
2024/02/12 04:38:02;;;;;;;2.37;1.40;;;22.20;60.20;;;;;;5054970;28;20468;-87
2024/02/12 04:40:29;;;;;;;2.03;1.63;;;22.30;60.30;;;;;;5054675;28;20518;-88
2024/02/12 04:42:58;;;;;;;1.80;1.30;;;22.20;60.20;;;;;;5054427;28;20537;-87
2024/02/12 04:45:25;;;;;;;2.20;1.60;;;22.20;60.20;;;;;;5054449;28;20445;-87
2024/02/12 04:47:52;;;;;;;1.70;1.37;;;22.20;60.30;;;;;;5054331;28;20445;-87
2024/02/12 04:50:19;;;;;;;2.57;1.53;;;22.20;60.30;;;;;;5020646;28;20437;-87
2024/02/12 04:52:47;;;;;;;2.10;1.50;;;22.20;60.30;;;;;;5054973;28;20448;-87
2024/02/12 04:55:15;;;;;;;2.03;1.47;;;22.20;60.20;;;;;;5054626;28;20441;-87
2024/02/12 04:57:42;;;;;;;1.83;1.30;;;22.20;60.20;;;;;;5054184;28;20484;-88
2024/02/12 05:00:12;;;;;;;2.50;1.83;;;22.20;60.20;;;;;;5054392;28;20450;-88
2024/02/12 05:02:40;;;;;;;1.70;1.40;;;22.20;60.10;;;;;;5054470;28;20553;-88
2024/02/12 05:05:08;;;;;;;1.67;1.20;;;22.20;60.10;;;;;;5037239;28;20470;-88
2024/02/12 05:07:38;;;;;;;1.80;1.50;;;22.20;60.00;;;;;;5054610;28;20449;-88
2024/02/12 05:10:06;;;;;;;2.07;1.60;;;22.20;60.00;;;;;;5055119;28;20469;-89
2024/02/12 05:12:33;;;;;;;1.80;1.50;;;22.20;60.00;;;;;;5036589;28;20834;-88
2024/02/12 05:14:59;;;;;;;2.13;1.40;;;22.20;60.00;;;;;;5053911;28;20469;-88
2024/02/12 05:17:42;;;;;;;1.90;1.60;;;22.30;60.10;;;;;;5054951;28;20443;-87
2024/02/12 05:22:53;;;;;;;1.90;1.40;;;22.20;60.00;;;;;;5060692;28;20540;-89
2024/02/12 05:25:21;;;;;;;2.10;1.40;;;22.20;60.00;;;;;;5054307;28;20437;-88
2024/02/12 05:27:48;;;;;;;2.13;1.60;;;22.20;59.90;;;;;;5054631;28;20544;-88
2024/02/12 05:30:15;;;;;;;2.10;1.47;;;22.30;60.00;;;;;;5054024;28;20445;-89
2024/02/12 05:32:43;;;;;;;2.00;1.40;;;22.30;59.90;;;;;;5053867;28;20461;-88
2024/02/12 05:35:10;;;;;;;2.20;1.80;;;22.30;59.90;;;;;;5053989;28;20438;-89
2024/02/12 05:37:36;;;;;;;2.30;1.50;;;22.30;59.90;;;;;;5036692;28;20441;-88
2024/02/12 05:40:07;;;;;;;2.10;1.80;;;22.30;59.90;;;;;;5054109;28;20544;-88
2024/02/12 05:42:34;;;;;;;2.40;1.80;;;22.30;59.80;;;;;;5056532;28;20491;-88
2024/02/12 05:45:01;;;;;;;2.37;1.47;;;22.30;59.80;;;;;;5057179;28;20437;-88
2024/02/12 05:47:28;;;;;;;2.10;1.47;;;22.30;59.80;;;;;;5054823;28;20436;-87
2024/02/12 05:49:56;;;;;;;1.80;1.50;;;22.30;59.80;;;;;;5055677;28;20441;-89
2024/02/12 05:52:23;;;;;;;2.27;1.80;;;22.30;59.80;;;;;;5055131;28;20439;-89
2024/02/12 05:54:50;;;;;;;2.37;1.50;;;22.30;59.80;;;;;;5057720;28;20947;-88
2024/02/12 05:57:17;;;;;;;2.20;1.50;;;22.30;59.70;;;;;;5061265;28;20444;-88
2024/02/12 05:59:44;;;;;;;3.00;2.00;;;22.30;59.70;;;;;;5058172;28;20437;-88
2024/02/12 06:02:12;;;;;;;2.20;1.63;;;22.40;59.80;;;;;;5062335;28;20485;-88
2024/02/12 06:04:39;;;;;;;2.20;1.70;;;22.30;59.70;;;;;;5059137;28;20441;-88
2024/02/12 06:07:08;;;;;;;1.87;1.60;;;22.30;59.70;;;;;;5058835;28;20779;-88
2024/02/12 06:09:36;;;;;;;2.10;1.87;;;22.30;59.70;;;;;;5058675;28;20437;-89
2024/02/12 06:12:04;;;;;;;2.13;1.60;;;22.30;59.70;;;;;;5059097;28;20476;-88
2024/02/12 06:14:31;;;;;;;2.20;1.33;;;22.40;59.70;;;;;;5059413;28;20476;-88
2024/02/12 06:16:59;;;;;;;3.00;2.00;;;22.30;59.60;;;;;;5059714;28;20449;-88
2024/02/12 06:19:26;;;;;;;1.80;1.50;;;22.40;59.70;;;;;;5059273;28;20448;-89
2024/02/12 06:21:53;;;;;;;2.23;1.70;;;22.30;59.60;;;;;;5057160;28;20484;-89
2024/02/12 06:24:22;;;;;;;1.87;1.40;;;22.30;59.60;;;;;;5040342;28;20510;-88
2024/02/12 06:26:49;;;;;;;2.43;1.70;;;22.50;59.80;;;;;;5067763;28;20447;-89
2024/02/12 06:29:16;;;;;;;2.43;1.40;;;22.40;59.70;;;;;;5081469;28;20461;-89
2024/02/12 06:31:45;;;;;;;1.70;1.40;;;22.40;59.70;;;;;;5078270;28;21063;-88
2024/02/12 06:34:12;;;;;;;2.20;1.90;;;22.40;59.60;;;;;;5059299;28;20442;-88
2024/02/12 06:36:39;;;;;;;2.10;1.50;;;22.40;59.60;;;;;;5058462;28;20920;-88
2024/02/12 06:39:08;;;;;;;2.33;1.53;;;22.50;59.70;;;;;;5040307;28;20465;-88
2024/02/12 06:41:36;;;;;;;1.93;1.67;;;22.40;59.60;;;;;;5057945;28;20487;-88
2024/02/12 06:44:03;;;;;;;2.93;1.77;;;22.40;59.50;;;;;;5038972;28;20441;-89
2024/02/12 06:46:30;;;;;;;2.10;1.50;;;22.40;59.50;;;;;;5057065;28;20437;-87
2024/02/12 06:48:57;;;;;;;1.90;1.27;;;22.40;59.50;;;;;;5038792;28;20536;-87
2024/02/12 06:51:24;;;;;;;2.00;1.60;;;22.40;59.50;;;;;;5039016;28;20445;-88
2024/02/12 06:53:51;;;;;;;1.90;1.40;;;22.40;59.50;;;;;;5056956;28;20437;-88
2024/02/12 06:56:19;;;;;;;2.10;1.90;;;22.40;59.50;;;;;;5056669;28;20521;-88
2024/02/12 06:58:47;;;;;;;2.73;1.70;;;22.40;59.50;;;;;;5056525;28;20956;-87
2024/02/12 07:01:14;;;;;;;1.97;1.70;;;22.40;59.50;;;;;;5056408;28;20433;-87
2024/02/12 07:03:44;;;;;;;2.20;1.93;;;22.40;59.50;;;;;;5056302;28;20445;-87
2024/02/12 07:06:11;;;;;;;2.33;1.70;;;22.40;59.50;;;;;;5055818;28;20444;-87
2024/02/12 07:08:41;;;;;;;2.80;1.87;;;22.40;59.50;;;;;;5056242;28;20441;-88
2024/02/12 07:11:08;;;;;;;2.37;1.67;;;22.50;59.50;;;;;;5056371;28;20441;-88
2024/02/12 07:13:35;;;;;;;1.80;1.40;;;22.40;59.40;;;;;;5056625;28;20812;-88
2024/02/12 07:16:03;;;;;;;2.00;1.70;;;22.50;59.50;;;;;;5056301;28;20433;-87
2024/02/12 07:18:31;;;;;;;1.97;1.67;;;22.50;59.50;;;;;;5056029;28;20459;-87
2024/02/12 07:20:59;;;;;;;2.20;1.90;;;22.50;59.50;;;;;;5056388;28;20434;-87
2024/02/12 07:23:26;;;;;;;2.10;1.73;;;22.50;59.50;;;;;;5056089;28;20481;-87
2024/02/12 07:25:53;;;;;;;2.27;1.90;;;22.50;59.50;;;;;;5056271;28;20476;-89
2024/02/12 07:28:21;;;;;;;2.00;1.60;;;22.50;59.50;;;;;;5055830;28;20445;-88
2024/02/12 07:30:48;;;;;;;2.00;1.50;;;22.50;59.50;;;;;;5056075;28;20449;-87
2024/02/12 07:33:17;;;;;;;1.80;1.57;;;22.40;59.40;;;;;;5055873;28;20465;-87
2024/02/12 07:35:44;;;;;;;2.07;1.50;;;22.40;59.40;;;;;;5056342;28;20441;-89
2024/02/12 07:38:11;;;;;;;2.27;1.63;;;22.40;59.50;;;;;;5056109;28;20438;-88
2024/02/12 07:40:38;;;;;;;2.13;1.80;;;22.40;59.40;;;;;;5055967;28;20439;-88
2024/02/12 07:43:05;;;;;;;1.90;1.67;;;22.40;59.50;;;;;;5055928;28;20477;-88
2024/02/12 07:45:33;;;;;;;2.10;1.50;;;22.50;59.50;;;;;;5036948;28;20445;-87
2024/02/12 07:48:00;;;;;;;2.00;1.50;;;22.40;59.40;;;;;;5035906;28;20814;-87
2024/02/12 07:50:29;;;;;;;2.10;1.60;;;22.50;59.50;;;;;;5035642;28;20438;-87
2024/02/12 07:52:56;;;;;;;2.03;1.57;;;22.50;59.50;;;;;;5035734;28;20435;-88
2024/02/12 07:55:23;;;;;;;1.77;1.50;;;22.40;59.40;;;;;;5035557;28;20438;-88
2024/02/12 07:57:50;;;;;;;2.20;1.93;;;22.40;59.40;;;;;;5018249;28;20797;-87
2024/02/12 08:00:18;;;;;;;2.40;2.17;;;22.50;59.50;;;;;;5035990;28;20453;-87
2024/02/12 08:02:45;;;;;;;2.77;1.60;;;22.50;59.50;;;;;;5036664;28;20498;-87
2024/02/12 08:05:15;;;;;;;2.00;1.60;;;22.50;59.40;;;;;;5037239;28;20474;-86
2024/02/12 08:07:43;;;;;;;2.60;2.10;;;22.50;59.40;;;;;;5036818;28;20937;-87
2024/02/12 08:10:12;;;;;;;2.97;1.80;;;22.50;59.40;;;;;;5018501;28;20504;-87
2024/02/12 08:12:39;;;;;;;2.03;1.70;;;22.50;59.40;;;;;;5036164;28;20446;-88
2024/02/12 08:15:08;;;;;;;2.97;2.00;;;22.50;59.40;;;;;;5023503;28;20471;-88
2024/02/12 08:17:35;;;;;;;2.33;1.80;;;22.50;59.40;;;;;;4998237;28;20447;-87
2024/02/12 08:20:04;;;;;;;2.23;1.73;;;22.50;59.40;;;;;;5014797;28;20483;-87
2024/02/12 08:22:31;;;;;;;1.87;1.53;;;22.50;59.40;;;;;;4998373;28;20497;-87
2024/02/12 08:24:59;;;;;;;2.13;1.70;;;22.50;59.40;;;;;;4997809;28;20518;-87
2024/02/12 08:27:27;;;;;;;2.00;1.53;;;22.50;59.40;;;;;;5015586;28;20449;-87
2024/02/12 08:29:54;;;;;;;2.40;1.93;;;22.50;59.30;;;;;;5015510;28;20881;-87
2024/02/12 08:32:22;;;;;;;2.40;1.63;;;22.50;59.40;;;;;;5015014;28;20456;-86
2024/02/12 08:34:53;;;;;;;2.10;1.87;;;22.70;59.50;;;;;;5015130;28;20474;-88
2024/02/12 08:37:22;;;;;;;2.30;1.70;;;22.50;59.30;;;;;;5015741;28;20807;-87
2024/02/12 08:39:49;;;;;;;2.30;1.60;;;22.60;59.40;;;;;;5014901;28;20447;-87
2024/02/12 08:42:17;;;;;;;2.83;2.10;;;22.60;59.40;;;;;;5015227;28;20482;-89
2024/02/12 08:44:47;;;;;;;1.90;1.50;;;22.70;59.40;;;;;;5014659;28;20439;-87
2024/02/12 08:47:14;;;;;;;2.37;2.10;;;22.50;59.30;;;;;;5015032;28;20455;-87
2024/02/12 08:49:41;;;;;;;1.83;1.60;;;22.50;59.30;;;;;;5016293;28;20474;-87
2024/02/12 08:52:08;;;;;;;1.80;1.40;;;22.50;59.30;;;;;;5015049;28;20447;-87
2024/02/12 08:54:37;;;;;;;2.00;1.73;;;22.50;59.30;;;;;;5014781;28;20538;-87
2024/02/12 08:57:05;;;;;;;2.03;1.60;;;22.60;59.40;;;;;;5014804;28;20439;-87
2024/02/12 08:59:34;;;;;;;1.80;1.60;;;22.50;59.30;;;;;;5015030;28;20465;-87
2024/02/12 09:02:01;;;;;;;2.00;1.60;;;22.50;59.30;;;;;;5014554;28;20463;-87
2024/02/12 09:04:27;;;;;;;2.20;1.70;;;22.60;59.40;;;;;;5014940;28;20849;-87
2024/02/12 09:06:55;;;;;;;1.70;1.30;;;22.60;59.30;;;;;;5015624;28;20461;-88
2024/02/12 09:09:22;;;;;;;2.57;1.93;;;22.60;59.40;;;;;;5029958;28;20481;-88
2024/02/12 09:11:49;;;;;;;7.93;1.77;;;22.60;59.40;;;;;;5034099;28;20835;-87
2024/02/12 09:14:17;;;;;;;1.80;1.50;;;22.60;59.40;;;;;;5039601;28;20473;-89
2024/02/12 09:16:48;;;;;;;3.10;2.80;;;22.60;59.50;;;;;;5054506;28;20932;-89
2024/02/12 09:19:15;;;;;;;2.80;1.90;;;22.50;59.40;;;;;;5053967;28;20456;-93
2024/02/12 09:21:42;;;;;;;2.83;2.40;;;22.50;59.30;;;;;;5053351;28;20456;-85
2024/02/12 09:24:10;;;;;;;2.03;1.57;;;22.50;59.30;;;;;;5053241;28;20485;-87
2024/02/12 09:26:37;;;;;;;3.33;1.93;;;22.50;59.60;;;;;;5053518;28;20445;-87
2024/02/12 09:29:03;;;;;;;2.10;1.80;;;22.60;59.80;;;;;;5052914;28;20444;-86
2024/02/12 09:31:33;;;;;;;1.90;1.40;;;22.60;59.70;;;;;;5053091;28;20462;-87
2024/02/12 09:34:02;;;;;;;3.20;1.57;;;22.60;59.80;;;;;;5053168;28;20937;-87
2024/02/12 09:36:28;;;;;;;3.03;1.90;;;22.60;59.80;;;;;;5053431;28;20441;-87
2024/02/12 09:38:55;;;;;;;3.10;1.90;;;22.60;59.90;;;;;;5056580;28;20452;-87
2024/02/12 09:41:26;;;;;;;1.97;1.77;;;22.60;59.90;;;;;;5056566;28;20505;-86
2024/02/12 09:43:54;;;;;;;2.70;2.10;;;22.60;59.80;;;;;;5039400;28;20484;-88
2024/02/12 09:46:22;;;;;;;2.33;2.00;;;22.60;59.60;;;;;;5053842;28;20506;-88
2024/02/12 09:48:50;;;;;;;2.23;2.03;;;22.60;59.50;;;;;;5068197;28;20437;-86
2024/02/12 09:51:18;;;;;;;3.30;2.27;;;22.60;59.70;;;;;;5077833;28;20500;-86
2024/02/12 09:53:45;;;;;;;2.30;1.90;;;22.60;59.90;;;;;;5070594;28;20803;-87
2024/02/12 09:56:13;;;;;;;1.80;1.43;;;22.60;60.00;;;;;;5053823;28;20524;-87
2024/02/12 09:58:40;;;;;;;4.03;1.80;;;22.60;60.00;;;;;;5053910;28;20791;-87
2024/02/12 10:01:07;;;;;;;2.80;1.73;;;22.60;60.00;;;;;;5053551;28;20457;-88
2024/02/12 10:03:34;;;;;;;2.80;2.00;;;22.60;60.00;;;;;;5053346;28;20481;-86
2024/02/12 10:06:01;;;;;;;3.07;1.73;;;22.60;60.00;;;;;;5053511;28;20440;-87
2024/02/12 10:08:30;;;;;;;3.40;2.03;;;22.60;60.00;;;;;;5053136;28;20445;-86
2024/02/12 10:10:57;;;;;;;2.90;2.10;;;22.70;60.10;;;;;;5053941;28;20807;-86
2024/02/12 10:13:24;;;;;;;4.03;2.27;;;22.60;60.00;;;;;;5053477;28;20441;-87
2024/02/12 10:15:53;;;;;;;2.30;2.10;;;22.60;60.00;;;;;;5053258;28;20519;-88
2024/02/12 10:18:20;;;;;;;2.10;1.80;;;22.60;60.10;;;;;;5053343;28;20437;-87
2024/02/12 10:20:48;;;;;;;2.30;2.10;;;22.70;60.20;;;;;;5053227;28;20445;-87
2024/02/12 10:23:16;;;;;;;2.17;1.90;;;22.70;60.20;;;;;;5053339;28;20488;-86
2024/02/12 10:25:48;;;;;;;2.33;2.13;;;22.60;60.10;;;;;;5053116;28;20449;-86
2024/02/12 10:28:16;;;;;;;2.20;2.00;;;22.60;60.10;;;;;;5053238;28;20441;-88
2024/02/12 10:30:43;;;;;;;2.63;1.73;;;22.60;60.20;;;;;;5052992;28;20440;-86
2024/02/12 10:33:12;;;;;;;1.90;1.43;;;22.60;60.20;;;;;;5034695;28;20444;-87
2024/02/12 10:35:40;;;;;;;4.20;1.70;;;22.60;60.00;;;;;;5053092;28;20932;-88
2024/02/12 10:38:08;;;;;;;2.53;1.87;;;22.60;59.90;;;;;;5035243;28;20480;-86
2024/02/12 10:40:44;;;;;;;4.80;1.90;;;22.60;60.00;;;;;;5053919;28;20449;-89
2024/02/12 10:43:16;;;;;;;3.70;2.37;;;22.60;60.20;;;;;;5056844;28;20476;-87
2024/02/12 10:45:47;;;;;;;2.13;1.77;;;22.60;60.20;;;;;;5039225;28;20444;-93
2024/02/12 10:48:15;;;;;;;2.10;1.90;;;22.60;60.10;;;;;;5057192;28;20445;-85
2024/02/12 10:50:45;;;;;;;2.43;1.70;;;22.60;60.10;;;;;;5057770;28;20449;-88
2024/02/12 10:53:13;;;;;;;3.00;1.80;;;22.60;60.10;;;;;;5060991;28;20527;-88
2024/02/12 10:55:40;;;;;;;2.90;1.93;;;22.60;60.10;;;;;;5058274;28;20437;-90
2024/02/12 10:58:15;;;;;;;2.67;1.50;;;22.60;61.00;;;;;;5070511;28;20421;-86
2024/02/12 11:00:41;;;;;;;2.20;2.00;;;22.60;60.90;;;;;;5068343;28;20481;-89
2024/02/12 11:03:08;;;;;;;5.50;2.00;;;22.60;60.00;;;;;;5069031;28;20455;-87
2024/02/12 11:05:41;;;;;;;2.10;1.50;;;22.60;60.10;;;;;;5065692;28;20445;-88
2024/02/12 11:08:15;;;;;;;2.13;1.93;;;22.70;60.20;;;;;;5068142;28;20520;-85
2024/02/12 11:10:49;;;;;;;2.83;2.10;;;22.60;60.00;;;;;;5066419;28;20505;-93
2024/02/12 11:13:39;;;;;;;2.40;2.07;;;22.60;60.00;;;;;;5067773;28;20449;-90
2024/02/12 11:16:13;;;;;;;2.20;2.00;;;22.70;60.00;;;;;;5068575;28;20438;-88
2024/02/12 11:18:40;;;;;;;1.90;1.50;;;22.60;59.90;;;;;;5073247;28;20413;-87
2024/02/12 11:21:09;;;;;;;2.20;1.60;;;22.70;60.00;;;;;;5063642;28;20445;-86
2024/02/12 11:23:40;;;;;;;2.33;1.87;;;22.70;59.90;;;;;;5057951;28;20497;-87
2024/02/12 11:26:11;;;;;;;2.10;1.80;;;22.70;59.90;;;;;;5043732;28;20461;-87
2024/02/12 11:28:53;;;;;;;3.90;1.80;;;22.70;59.90;;;;;;5070893;28;20425;-87
2024/02/12 11:31:23;;;;;;;2.20;1.70;;;22.70;59.90;;;;;;5087249;28;20951;-86
2024/02/12 11:33:50;;;;;;;2.37;1.77;;;22.70;59.90;;;;;;5087256;28;20459;-88
2024/02/12 11:36:17;;;;;;;2.30;1.90;;;22.70;59.90;;;;;;5088477;28;20536;-88
2024/02/12 11:38:54;;;;;;;2.27;2.07;;;22.60;59.80;;;;;;5082723;28;20445;-87
2024/02/12 11:41:25;;;;;;;2.33;1.93;;;22.70;59.90;;;;;;5133970;22;20471;-88
2024/02/12 11:43:53;;;;;;;2.63;1.97;;;22.80;60.00;;;;;;5076331;28;20487;-88
2024/02/12 11:46:20;;;;;;;2.37;2.13;;;22.70;59.90;;;;;;5075632;28;20451;-86
2024/02/12 11:48:47;;;;;;;2.13;1.87;;;22.60;59.90;;;;;;5080883;28;20451;-89
2024/02/12 11:51:19;;;;;;;2.20;1.70;;;22.60;59.90;;;;;;5098052;28;20443;-92
2024/02/12 11:53:46;;;;;;;2.27;1.87;;;22.70;59.90;;;;;;5082999;28;20491;-89
2024/02/12 11:56:13;;;;;;;2.93;2.17;;;22.60;59.90;;;;;;5072855;28;20463;-89
2024/02/12 11:58:40;;;;;;;3.20;2.30;;;22.60;59.90;;;;;;5060013;28;20448;-87
2024/02/12 12:01:08;;;;;;;2.33;1.93;;;22.60;60.00;;;;;;5067729;28;20975;-87
2024/02/12 12:03:37;;;;;;;2.43;1.90;;;22.60;60.00;;;;;;5075627;28;20494;-92
2024/02/12 12:06:04;;;;;;;2.70;1.87;;;22.50;60.00;;;;;;5074975;28;20953;-90
2024/02/12 12:08:32;;;;;;;3.20;1.93;;;22.50;60.00;;;;;;5055445;28;20524;-90
2024/02/12 12:11:06;;;;;;;2.00;1.80;;;22.50;60.00;;;;;;5055588;28;20429;-89
2024/02/12 12:13:33;;;;;;;2.23;2.03;;;22.60;60.00;;;;;;5056574;28;20449;-88
2024/02/12 12:16:03;;;;;;;3.13;1.90;;;22.50;59.90;;;;;;5058701;28;20466;-88
2024/02/12 12:18:32;;;;;;;2.57;1.73;;;22.60;60.10;;;;;;5058294;28;20532;-90
2024/02/12 12:20:59;;;;;;;2.43;1.90;;;22.50;60.00;;;;;;5056898;28;20492;-88
2024/02/12 12:23:27;;;;;;;2.30;1.87;;;22.60;60.10;;;;;;5055643;28;20477;-91
2024/02/12 12:25:56;;;;;;;2.43;2.07;;;22.60;60.10;;;;;;5055548;28;20511;-91
2024/02/12 12:28:24;;;;;;;2.67;2.23;;;22.60;60.00;;;;;;5055851;28;20442;-92
2024/02/12 12:30:54;;;;;;;2.57;2.13;;;22.60;60.00;;;;;;5054949;28;20472;-90
2024/02/12 12:33:21;;;;;;;2.00;1.70;;;22.60;60.00;;;;;;5066750;28;20437;-88
2024/02/12 12:35:49;;;;;;;2.97;1.60;;;22.70;60.00;;;;;;5074150;28;20441;-88
2024/02/12 12:38:16;;;;;;;2.43;2.23;;;22.60;59.90;;;;;;5075491;28;20436;-92
2024/02/12 12:40:43;;;;;;;2.33;1.83;;;22.70;60.20;;;;;;5076330;28;20578;-88
2024/02/12 12:43:10;;;;;;;2.53;2.33;;;22.70;60.20;;;;;;5074005;28;20441;-87
2024/02/12 12:45:37;;;;;;;2.40;1.70;;;22.80;60.30;;;;;;5074023;28;20539;-87
2024/02/12 12:48:05;;;;;;;5.57;2.10;;;22.80;60.20;;;;;;5056907;28;20445;-86
2024/02/12 12:50:32;;;;;;;2.70;1.63;;;22.90;60.30;;;;;;5074534;28;20462;-90
2024/02/12 12:53:00;;;;;;;7.80;2.40;;;22.90;60.30;;;;;;5074107;28;20763;-87
2024/02/12 12:55:27;;;;;;;3.03;2.10;;;22.90;59.90;;;;;;5073508;28;20440;-87
2024/02/12 12:57:54;;;;;;;4.13;2.30;;;22.90;60.20;;;;;;5057757;28;20483;-88
2024/02/12 13:00:26;;;;;;;3.20;1.87;;;23.00;60.10;;;;;;5054436;28;20785;-89
2024/02/12 13:02:54;;;;;;;4.27;2.40;;;23.00;60.00;;;;;;5054707;28;20437;-92
2024/02/12 13:05:22;;;;;;;6.57;3.10;;;23.10;59.80;;;;;;5070840;28;20476;-89